createdAt,value
2018-05-31T00:00:05.323Z,25.28
2018-05-31T00:00:45.844Z,25.2
2018-05-31T00:01:26.366Z,25.2
2018-05-31T00:02:06.906Z,25.14
2018-05-31T00:02:47.421Z,25.17
2018-05-31T00:03:27.959Z,25.08
2018-05-31T00:04:08.482Z,25.1
2018-05-31T00:04:49.002Z,25.1
2018-05-31T00:05:29.540Z,25
2018-05-31T00:06:10.067Z,24.99
2018-05-31T00:06:50.605Z,24.96
2018-05-31T00:07:31.126Z,25.14
2018-05-31T00:08:11.627Z,25.15
2018-05-31T00:08:52.167Z,25.2
2018-05-31T00:09:32.657Z,25.17
2018-05-31T00:10:13.174Z,25.09
2018-05-31T00:10:53.707Z,25.3
2018-05-31T00:11:34.230Z,25.32
2018-05-31T00:12:14.754Z,25.18
2018-05-31T00:12:55.267Z,25.14
2018-05-31T00:13:35.810Z,25.1
2018-05-31T00:14:16.337Z,25.15
2018-05-31T00:14:56.869Z,25.09
2018-05-31T00:15:37.405Z,25.1
2018-05-31T00:16:17.943Z,25.14
2018-05-31T00:16:58.487Z,25.03
2018-05-31T00:17:39.012Z,25.05
2018-05-31T00:18:19.556Z,25.09
2018-05-31T00:19:00.084Z,25.13
2018-05-31T00:19:40.614Z,25.15
2018-05-31T00:20:21.133Z,25.17
2018-05-31T00:21:01.668Z,25.25
2018-05-31T00:21:42.195Z,25.23
2018-05-31T00:22:22.697Z,25.17
2018-05-31T00:23:03.213Z,25.14
2018-05-31T00:23:43.804Z,25.14
2018-05-31T00:24:24.328Z,25.15
2018-05-31T00:25:04.852Z,25.15
2018-05-31T00:25:45.390Z,25.15
2018-05-31T00:26:25.911Z,25.14
2018-05-31T00:27:06.419Z,25.17
2018-05-31T00:27:47.143Z,25.06
2018-05-31T00:28:27.656Z,25.13
2018-05-31T00:29:08.162Z,25.14
2018-05-31T00:29:48.687Z,25.21
2018-05-31T00:30:29.299Z,25.18
2018-05-31T00:31:09.813Z,25.13
2018-05-31T00:31:50.328Z,25.1
2018-05-31T00:32:30.848Z,25.1
2018-05-31T00:33:11.344Z,25.1
2018-05-31T00:33:51.857Z,25.14
2018-05-31T00:34:32.381Z,25.06
2018-05-31T00:35:12.899Z,25.15
2018-05-31T00:35:53.418Z,25.1
2018-05-31T00:36:33.936Z,25.15
2018-05-31T00:37:14.465Z,25.13
2018-05-31T00:37:54.986Z,25.14
2018-05-31T00:38:35.484Z,25.15
2018-05-31T00:39:16.009Z,25.09
2018-05-31T00:39:56.543Z,25.1
2018-05-31T00:40:37.054Z,25.15
2018-05-31T00:41:17.573Z,24.98
2018-05-31T00:41:58.088Z,25.02
2018-05-31T00:42:38.597Z,25.06
2018-05-31T00:43:19.100Z,25.05
2018-05-31T00:43:59.614Z,25.05
2018-05-31T00:44:40.116Z,25.02
2018-05-31T00:45:20.643Z,24.85
2018-05-31T00:46:01.154Z,24.95
2018-05-31T00:46:41.673Z,24.95
2018-05-31T00:47:22.203Z,24.98
2018-05-31T00:48:02.740Z,24.91
2018-05-31T00:48:43.243Z,24.96
2018-05-31T00:49:23.730Z,25.02
2018-05-31T00:50:04.266Z,24.93
2018-05-31T00:50:44.759Z,24.96
2018-05-31T00:51:25.299Z,24.85
2018-05-31T00:52:05.802Z,24.91
2018-05-31T00:52:46.310Z,24.9
2018-05-31T00:53:26.817Z,24.87
2018-05-31T00:54:07.355Z,24.8
2018-05-31T00:54:47.881Z,24.81
2018-05-31T00:55:28.413Z,24.65
2018-05-31T00:56:08.934Z,24.62
2018-05-31T00:56:49.456Z,24.68
2018-05-31T00:57:30.011Z,24.68
2018-05-31T00:58:10.513Z,24.68
2018-05-31T00:58:51.036Z,24.81
2018-05-31T00:59:31.556Z,24.77
2018-05-31T01:00:12.086Z,24.64
2018-05-31T01:00:52.618Z,24.52
2018-05-31T01:01:33.139Z,24.57
2018-05-31T01:02:13.654Z,24.64
2018-05-31T01:02:54.190Z,24.52
2018-05-31T01:03:34.707Z,24.58
2018-05-31T01:04:15.221Z,24.57
2018-05-31T01:04:55.746Z,24.68
2018-05-31T01:05:36.273Z,24.6
2018-05-31T01:06:16.782Z,24.58
2018-05-31T01:06:57.319Z,24.57
2018-05-31T01:07:37.844Z,24.5
2018-05-31T01:08:18.362Z,24.55
2018-05-31T01:08:58.894Z,24.5
2018-05-31T01:09:39.414Z,24.57
2018-05-31T01:10:19.943Z,24.5
2018-05-31T01:11:00.456Z,24.42
2018-05-31T01:11:40.964Z,24.47
2018-05-31T01:12:21.483Z,24.37
2018-05-31T01:13:02.012Z,24.25
2018-05-31T01:13:42.620Z,24.21
2018-05-31T01:14:23.141Z,24.28
2018-05-31T01:15:03.657Z,24.28
2018-05-31T01:15:44.180Z,24.31
2018-05-31T01:16:24.714Z,24.31
2018-05-31T01:17:05.246Z,24.27
2018-05-31T01:17:45.755Z,24.15
2018-05-31T01:18:26.273Z,24.15
2018-05-31T01:19:06.808Z,24.2
2018-05-31T01:19:47.341Z,24.24
2018-05-31T01:20:27.859Z,24.25
2018-05-31T01:21:08.373Z,24.1
2018-05-31T01:21:48.896Z,24.2
2018-05-31T01:22:29.411Z,24.16
2018-05-31T01:23:09.932Z,24
2018-05-31T01:23:50.464Z,23.87
2018-05-31T01:24:30.975Z,23.98
2018-05-31T01:25:11.508Z,24.03
2018-05-31T01:25:52.048Z,24.03
2018-05-31T01:26:32.555Z,24.05
2018-05-31T01:27:13.081Z,23.97
2018-05-31T01:27:53.604Z,23.98
2018-05-31T01:28:34.115Z,24.05
2018-05-31T01:29:14.657Z,24.12
2018-05-31T01:29:55.188Z,24.12
2018-05-31T01:30:35.704Z,24.21
2018-05-31T01:31:16.220Z,24.12
2018-05-31T01:31:56.788Z,24.09
2018-05-31T01:32:37.248Z,24.05
2018-05-31T01:33:17.777Z,23.88
2018-05-31T01:33:58.300Z,23.9
2018-05-31T01:34:38.829Z,24
2018-05-31T01:35:19.353Z,23.97
2018-05-31T01:35:59.870Z,24.05
2018-05-31T01:36:40.396Z,24.05
2018-05-31T01:37:20.925Z,24.09
2018-05-31T01:38:01.433Z,24.1
2018-05-31T01:38:41.961Z,24.1
2018-05-31T01:39:22.562Z,24.06
2018-05-31T01:40:03.028Z,24.06
2018-05-31T01:40:43.544Z,24.12
2018-05-31T01:41:24.061Z,24.09
2018-05-31T01:42:04.605Z,23.97
2018-05-31T01:42:45.128Z,24.05
2018-05-31T01:43:25.646Z,24.02
2018-05-31T01:44:06.172Z,24.03
2018-05-31T01:44:46.684Z,23.98
2018-05-31T01:45:27.206Z,23.84
2018-05-31T01:46:07.731Z,23.88
2018-05-31T01:46:48.255Z,23.85
2018-05-31T01:47:28.779Z,23.76
2018-05-31T01:48:09.290Z,23.83
2018-05-31T01:48:49.805Z,23.75
2018-05-31T01:49:30.328Z,23.75
2018-05-31T01:50:10.847Z,23.68
2018-05-31T01:50:51.366Z,23.66
2018-05-31T01:51:31.905Z,23.6
2018-05-31T01:52:12.423Z,23.54
2018-05-31T01:52:52.946Z,23.6
2018-05-31T01:53:33.487Z,23.61
2018-05-31T01:54:14.006Z,23.75
2018-05-31T01:54:54.521Z,23.68
2018-05-31T01:55:35.042Z,23.65
2018-05-31T01:56:15.559Z,23.69
2018-05-31T01:56:56.078Z,23.6
2018-05-31T01:57:36.592Z,23.57
2018-05-31T01:58:17.109Z,23.54
2018-05-31T01:58:57.637Z,23.54
2018-05-31T01:59:38.157Z,23.75
2018-05-31T02:00:18.679Z,23.75
2018-05-31T02:00:59.208Z,23.73
2018-05-31T02:01:39.733Z,23.83
2018-05-31T02:02:20.265Z,23.79
2018-05-31T02:03:00.776Z,23.8
2018-05-31T02:03:41.292Z,23.83
2018-05-31T02:04:21.950Z,23.78
2018-05-31T02:05:02.410Z,23.73
2018-05-31T02:05:42.918Z,23.84
2018-05-31T02:06:23.448Z,23.78
2018-05-31T02:07:04.013Z,23.76
2018-05-31T02:07:44.513Z,23.8
2018-05-31T02:08:25.027Z,23.8
2018-05-31T02:09:05.539Z,23.76
2018-05-31T02:09:46.045Z,23.79
2018-05-31T02:10:26.563Z,23.8
2018-05-31T02:11:07.094Z,23.79
2018-05-31T02:11:47.603Z,23.93
2018-05-31T02:12:28.119Z,23.85
2018-05-31T02:13:08.642Z,23.91
2018-05-31T02:13:49.176Z,23.97
2018-05-31T02:14:29.702Z,24.03
2018-05-31T02:15:10.223Z,23.98
2018-05-31T02:15:50.754Z,23.91
2018-05-31T02:16:31.269Z,23.87
2018-05-31T02:17:11.790Z,23.91
2018-05-31T02:17:52.310Z,23.83
2018-05-31T02:18:32.840Z,23.8
2018-05-31T02:19:13.339Z,23.85
2018-05-31T02:19:53.837Z,23.72
2018-05-31T02:20:34.370Z,23.83
2018-05-31T02:21:14.874Z,23.73
2018-05-31T02:21:55.395Z,23.78
2018-05-31T02:22:35.887Z,23.76
2018-05-31T02:23:16.377Z,23.76
2018-05-31T02:23:56.897Z,23.75
2018-05-31T02:24:37.430Z,23.73
2018-05-31T02:25:17.927Z,23.72
2018-05-31T02:25:58.432Z,23.83
2018-05-31T02:26:38.942Z,23.8
2018-05-31T02:27:19.448Z,23.73
2018-05-31T02:28:00.092Z,23.73
2018-05-31T02:28:40.625Z,23.75
2018-05-31T02:29:21.113Z,23.68
2018-05-31T02:30:01.609Z,23.63
2018-05-31T02:30:42.109Z,23.63
2018-05-31T02:31:22.611Z,23.51
2018-05-31T02:32:03.090Z,23.61
2018-05-31T02:32:43.571Z,23.6
2018-05-31T02:33:24.076Z,23.6
2018-05-31T02:34:04.567Z,23.55
2018-05-31T02:34:45.081Z,23.57
2018-05-31T02:35:25.583Z,23.57
2018-05-31T02:36:06.075Z,23.46
2018-05-31T02:36:46.536Z,23.36
2018-05-31T02:37:27.045Z,23.36
2018-05-31T02:38:07.558Z,23.33
2018-05-31T02:38:47.994Z,23.32
2018-05-31T02:39:28.502Z,23.38
2018-05-31T02:40:09.027Z,23.35
2018-05-31T02:40:49.511Z,23.35
2018-05-31T02:41:29.977Z,23.22
2018-05-31T02:42:10.490Z,23.33
2018-05-31T02:42:51.018Z,23.28
2018-05-31T02:43:31.521Z,23.2
2018-05-31T02:44:12.046Z,23.23
2018-05-31T02:44:52.566Z,23.31
2018-05-31T02:45:33.072Z,23.28
2018-05-31T02:46:13.582Z,23.28
2018-05-31T02:46:54.091Z,23.33
2018-05-31T02:47:34.617Z,23.33
2018-05-31T02:48:15.157Z,23.32
2018-05-31T02:48:55.672Z,23.27
2018-05-31T02:49:36.180Z,23.23
2018-05-31T02:50:16.708Z,23.31
2018-05-31T02:50:57.229Z,23.28
2018-05-31T02:51:37.747Z,23.2
2018-05-31T02:52:18.267Z,23.27
2018-05-31T02:52:58.775Z,23.31
2018-05-31T02:53:39.300Z,23.23
2018-05-31T02:54:19.814Z,23.38
2018-05-31T02:55:00.348Z,23.36
2018-05-31T02:55:40.843Z,23.31
2018-05-31T02:56:21.359Z,23.33
2018-05-31T02:57:01.888Z,23.33
2018-05-31T02:57:42.400Z,23.28
2018-05-31T02:58:22.910Z,23.33
2018-05-31T02:59:03.453Z,23.43
2018-05-31T02:59:43.952Z,23.39
2018-05-31T03:00:24.467Z,23.33
2018-05-31T03:01:04.976Z,23.39
2018-05-31T03:01:45.497Z,23.43
2018-05-31T03:02:26.020Z,23.42
2018-05-31T03:03:06.556Z,23.39
2018-05-31T03:03:47.051Z,23.42
2018-05-31T03:04:27.566Z,23.38
2018-05-31T03:05:08.076Z,23.4
2018-05-31T03:05:48.619Z,23.35
2018-05-31T03:06:29.152Z,23.39
2018-05-31T03:07:09.663Z,23.33
2018-05-31T03:07:50.196Z,23.47
2018-05-31T03:08:30.701Z,23.43
2018-05-31T03:09:11.206Z,23.38
2018-05-31T03:09:51.726Z,23.42
2018-05-31T03:10:32.267Z,23.39
2018-05-31T03:11:12.788Z,23.43
2018-05-31T03:11:53.326Z,23.38
2018-05-31T03:12:33.845Z,23.38
2018-05-31T03:13:14.350Z,23.47
2018-05-31T03:13:54.861Z,23.48
2018-05-31T03:14:35.374Z,23.47
2018-05-31T03:15:15.900Z,23.39
2018-05-31T03:15:56.434Z,23.47
2018-05-31T03:16:36.935Z,23.35
2018-05-31T03:17:17.458Z,23.35
2018-05-31T03:17:57.995Z,23.33
2018-05-31T03:18:38.538Z,23.42
2018-05-31T03:19:19.054Z,23.35
2018-05-31T03:19:59.576Z,23.31
2018-05-31T03:20:40.099Z,23.27
2018-05-31T03:21:20.632Z,23.25
2018-05-31T03:22:01.108Z,23.32
2018-05-31T03:22:41.607Z,23.39
2018-05-31T03:23:22.132Z,23.48
2018-05-31T03:24:02.665Z,23.46
2018-05-31T03:24:43.195Z,23.5
2018-05-31T03:25:23.732Z,23.55
2018-05-31T03:26:04.268Z,23.55
2018-05-31T03:26:44.749Z,23.58
2018-05-31T03:27:25.244Z,23.4
2018-05-31T03:28:05.765Z,23.4
2018-05-31T03:28:46.293Z,23.5
2018-05-31T03:29:26.795Z,23.46
2018-05-31T03:30:07.311Z,23.35
2018-05-31T03:30:47.828Z,23.33
2018-05-31T03:31:28.333Z,23.33
2018-05-31T03:32:08.848Z,23.32
2018-05-31T03:32:49.366Z,23.2
2018-05-31T03:33:29.910Z,23.16
2018-05-31T03:34:10.434Z,23.32
2018-05-31T03:34:50.921Z,23.22
2018-05-31T03:35:31.439Z,23.2
2018-05-31T03:36:11.918Z,23.2
2018-05-31T03:36:52.399Z,23.22
2018-05-31T03:37:32.904Z,23.2
2018-05-31T03:38:13.421Z,23.23
2018-05-31T03:38:53.944Z,23.32
2018-05-31T03:39:34.469Z,23.33
2018-05-31T03:40:14.981Z,23.27
2018-05-31T03:40:55.509Z,23.28
2018-05-31T03:41:36.036Z,23.33
2018-05-31T03:42:16.553Z,23.33
2018-05-31T03:42:57.080Z,23.25
2018-05-31T03:43:37.587Z,23.12
2018-05-31T03:44:18.124Z,23.23
2018-05-31T03:44:58.655Z,23.27
2018-05-31T03:45:39.173Z,23.32
2018-05-31T03:46:19.685Z,23.38
2018-05-31T03:47:00.214Z,23.39
2018-05-31T03:47:40.740Z,23.53
2018-05-31T03:48:21.253Z,23.51
2018-05-31T03:49:01.774Z,23.57
2018-05-31T03:49:42.289Z,23.6
2018-05-31T03:50:22.820Z,23.61
2018-05-31T03:51:03.339Z,23.65
2018-05-31T03:51:43.875Z,23.63
2018-05-31T03:52:24.394Z,23.7
2018-05-31T03:53:04.930Z,23.72
2018-05-31T03:53:45.428Z,23.69
2018-05-31T03:54:25.981Z,23.8
2018-05-31T03:55:06.496Z,23.7
2018-05-31T03:55:47.009Z,23.75
2018-05-31T03:56:27.531Z,23.85
2018-05-31T03:57:08.042Z,23.8
2018-05-31T03:57:48.551Z,23.78
2018-05-31T03:58:29.079Z,23.78
2018-05-31T03:59:09.603Z,23.84
2018-05-31T03:59:50.131Z,23.95
2018-05-31T04:00:30.669Z,23.85
2018-05-31T04:01:11.180Z,23.84
2018-05-31T04:01:51.703Z,23.88
2018-05-31T04:02:32.217Z,24
2018-05-31T04:03:12.728Z,24.1
2018-05-31T04:03:53.251Z,24.13
2018-05-31T04:04:33.769Z,24.06
2018-05-31T04:05:14.303Z,24.12
2018-05-31T04:05:54.826Z,24.09
2018-05-31T04:06:35.363Z,24.1
2018-05-31T04:07:15.880Z,24.15
2018-05-31T04:07:56.416Z,24.22
2018-05-31T04:08:36.927Z,24.1
2018-05-31T04:09:17.457Z,24.24
2018-05-31T04:09:57.989Z,24.25
2018-05-31T04:10:38.513Z,24.12
2018-05-31T04:11:19.032Z,24.24
2018-05-31T04:11:59.553Z,24.28
2018-05-31T04:12:40.068Z,24.24
2018-05-31T04:13:20.593Z,24.25
2018-05-31T04:14:01.168Z,24.22
2018-05-31T04:14:41.679Z,24.28
2018-05-31T04:15:22.193Z,24.28
2018-05-31T04:16:02.715Z,24.21
2018-05-31T04:16:43.242Z,24.22
2018-05-31T04:17:23.754Z,24.28
2018-05-31T04:18:04.272Z,24.27
2018-05-31T04:18:44.781Z,24.31
2018-05-31T04:19:25.298Z,24.34
2018-05-31T04:20:05.805Z,24.31
2018-05-31T04:20:46.321Z,24.35
2018-05-31T04:21:26.828Z,24.39
2018-05-31T04:22:07.343Z,24.35
2018-05-31T04:22:47.854Z,24.35
2018-05-31T04:23:28.363Z,24.34
2018-05-31T04:24:08.864Z,24.42
2018-05-31T04:24:49.387Z,24.4
2018-05-31T04:25:29.899Z,24.43
2018-05-31T04:26:10.392Z,24.53
2018-05-31T04:26:50.900Z,24.55
2018-05-31T04:27:31.402Z,24.55
2018-05-31T04:28:11.897Z,24.61
2018-05-31T04:28:52.369Z,24.58
2018-05-31T04:29:32.887Z,24.49
2018-05-31T04:30:13.414Z,24.55
2018-05-31T04:30:53.910Z,24.69
2018-05-31T04:31:34.438Z,24.73
2018-05-31T04:32:14.948Z,24.8
2018-05-31T04:32:55.486Z,24.85
2018-05-31T04:33:36.022Z,24.91
2018-05-31T04:34:16.518Z,24.95
2018-05-31T04:34:57.039Z,24.93
2018-05-31T04:35:37.563Z,24.93
2018-05-31T04:36:18.092Z,24.93
2018-05-31T04:36:58.602Z,24.88
2018-05-31T04:37:39.121Z,24.99
2018-05-31T04:38:19.602Z,24.95
2018-05-31T04:39:00.112Z,24.88
2018-05-31T04:39:40.641Z,24.91
2018-05-31T04:40:21.127Z,25.02
2018-05-31T04:41:01.655Z,25.13
2018-05-31T04:41:42.124Z,24.99
2018-05-31T04:42:22.639Z,24.96
2018-05-31T04:43:03.157Z,25
2018-05-31T04:43:43.668Z,25
2018-05-31T04:44:24.182Z,25.06
2018-05-31T04:45:04.700Z,24.95
2018-05-31T04:45:45.809Z,24.88
2018-05-31T04:46:26.014Z,25
2018-05-31T04:47:06.522Z,25
2018-05-31T04:47:47.049Z,24.99
2018-05-31T04:48:27.572Z,25.14
2018-05-31T04:49:08.101Z,25.2
2018-05-31T04:49:48.628Z,25.17
2018-05-31T04:50:29.170Z,25.25
2018-05-31T04:51:09.696Z,25.25
2018-05-31T04:51:50.228Z,25.21
2018-05-31T04:52:30.743Z,25.3
2018-05-31T04:53:11.255Z,25.36
2018-05-31T04:53:51.777Z,25.45
2018-05-31T04:54:32.314Z,25.33
2018-05-31T04:55:12.823Z,25.35
2018-05-31T04:55:53.288Z,25.52
2018-05-31T04:56:33.793Z,25.65
2018-05-31T04:57:14.302Z,25.79
2018-05-31T04:57:54.819Z,25.65
2018-05-31T04:58:35.318Z,25.69
2018-05-31T04:59:15.819Z,25.75
2018-05-31T04:59:56.327Z,25.77
2018-05-31T05:00:37.102Z,25.8
2018-05-31T05:01:17.591Z,25.77
2018-05-31T05:01:58.047Z,25.79
2018-05-31T05:02:38.544Z,25.57
2018-05-31T05:03:19.029Z,25.45
2018-05-31T05:03:59.530Z,25.57
2018-05-31T05:04:40.038Z,25.62
2018-05-31T05:05:20.545Z,25.65
2018-05-31T05:06:01.085Z,25.65
2018-05-31T05:06:41.553Z,25.65
2018-05-31T05:07:22.031Z,25.6
2018-05-31T05:08:02.531Z,25.65
2018-05-31T05:08:43.052Z,25.67
2018-05-31T05:09:23.568Z,25.62
2018-05-31T05:10:04.065Z,25.62
2018-05-31T05:10:44.606Z,25.61
2018-05-31T05:11:25.115Z,25.73
2018-05-31T05:12:05.604Z,25.7
2018-05-31T05:12:46.105Z,25.77
2018-05-31T05:13:26.629Z,25.79
2018-05-31T05:14:07.120Z,25.79
2018-05-31T05:14:47.618Z,25.77
2018-05-31T05:15:28.120Z,25.75
2018-05-31T05:16:08.646Z,25.83
2018-05-31T05:16:49.168Z,25.82
2018-05-31T05:17:29.696Z,25.79
2018-05-31T05:18:10.208Z,25.76
2018-05-31T05:18:50.725Z,25.75
2018-05-31T05:19:31.243Z,25.76
2018-05-31T05:20:11.739Z,25.76
2018-05-31T05:20:52.235Z,25.73
2018-05-31T05:21:32.728Z,25.77
2018-05-31T05:22:13.248Z,25.75
2018-05-31T05:22:53.755Z,25.75
2018-05-31T05:23:34.271Z,25.8
2018-05-31T05:24:14.800Z,25.92
2018-05-31T05:24:55.327Z,25.88
2018-05-31T05:25:35.854Z,25.97
2018-05-31T05:26:16.387Z,25.97
2018-05-31T05:26:56.878Z,25.9
2018-05-31T05:27:37.405Z,25.94
2018-05-31T05:28:17.847Z,25.91
2018-05-31T05:28:58.516Z,25.9
2018-05-31T05:29:39.011Z,25.87
2018-05-31T05:30:19.528Z,25.87
2018-05-31T05:31:00.045Z,25.77
2018-05-31T05:31:40.546Z,25.73
2018-05-31T05:32:21.084Z,25.67
2018-05-31T05:33:01.568Z,25.64
2018-05-31T05:33:42.080Z,25.69
2018-05-31T05:34:22.609Z,25.64
2018-05-31T05:35:03.107Z,25.58
2018-05-31T05:35:43.630Z,25.61
2018-05-31T05:36:24.164Z,25.61
2018-05-31T05:37:04.673Z,25.65
2018-05-31T05:37:45.184Z,25.65
2018-05-31T05:38:25.659Z,25.72
2018-05-31T05:39:06.153Z,25.62
2018-05-31T05:39:46.676Z,25.6
2018-05-31T05:40:27.206Z,25.54
2018-05-31T05:41:07.728Z,25.42
2018-05-31T05:41:48.230Z,25.42
2018-05-31T05:42:28.703Z,25.52
2018-05-31T05:43:09.210Z,25.55
2018-05-31T05:43:49.729Z,25.4
2018-05-31T05:44:30.220Z,25.39
2018-05-31T05:45:10.728Z,25.4
2018-05-31T05:45:51.229Z,25.43
2018-05-31T05:46:31.702Z,25.43
2018-05-31T05:47:12.236Z,25.57
2018-05-31T05:47:52.830Z,25.51
2018-05-31T05:48:33.356Z,25.54
2018-05-31T05:49:13.846Z,25.7
2018-05-31T05:49:54.399Z,25.8
2018-05-31T05:50:34.887Z,25.94
2018-05-31T05:51:15.411Z,26.01
2018-05-31T05:51:55.945Z,26.29
2018-05-31T05:52:36.481Z,26.45
2018-05-31T05:53:16.988Z,26.57
2018-05-31T05:53:57.526Z,26.73
2018-05-31T05:54:38.041Z,26.7
2018-05-31T05:55:18.560Z,26.97
2018-05-31T05:55:59.074Z,26.99
2018-05-31T05:56:39.746Z,27.12
2018-05-31T05:57:20.209Z,27.36
2018-05-31T05:58:00.714Z,27.5
2018-05-31T05:58:41.236Z,27.54
2018-05-31T05:59:21.751Z,27.67
2018-05-31T06:00:02.265Z,27.65
2018-05-31T06:00:42.767Z,27.6
2018-05-31T06:01:23.379Z,27.75
2018-05-31T06:02:03.915Z,27.81
2018-05-31T06:02:44.400Z,27.96
2018-05-31T06:03:24.942Z,28.04
2018-05-31T06:04:05.475Z,28.04
2018-05-31T06:04:45.998Z,27.96
2018-05-31T06:05:26.484Z,27.96
2018-05-31T06:06:06.964Z,28.07
2018-05-31T06:06:47.506Z,28.07
2018-05-31T06:07:27.999Z,28.31
2018-05-31T06:08:08.488Z,28.22
2018-05-31T06:08:49.011Z,28.3
2018-05-31T06:09:29.536Z,28.17
2018-05-31T06:10:10.641Z,28.15
2018-05-31T06:10:51.047Z,28.22
2018-05-31T06:11:31.596Z,28.3
2018-05-31T06:12:12.122Z,28.34
2018-05-31T06:12:52.638Z,28.27
2018-05-31T06:13:33.132Z,28.3
2018-05-31T06:14:13.638Z,28.29
2018-05-31T06:14:54.142Z,28.43
2018-05-31T06:15:34.720Z,28.55
2018-05-31T06:16:15.158Z,28.61
2018-05-31T06:16:55.682Z,28.71
2018-05-31T06:17:36.195Z,28.62
2018-05-31T06:18:16.705Z,28.68
2018-05-31T06:18:57.625Z,28.7
2018-05-31T06:19:37.706Z,28.83
2018-05-31T06:20:18.190Z,28.88
2018-05-31T06:20:58.819Z,28.89
2018-05-31T06:21:39.233Z,28.83
2018-05-31T06:22:19.727Z,28.71
2018-05-31T06:23:00.209Z,28.86
2018-05-31T06:23:40.704Z,28.86
2018-05-31T06:24:21.496Z,28.9
2018-05-31T06:25:02.030Z,28.89
2018-05-31T06:25:42.547Z,29.09
2018-05-31T06:26:23.038Z,29.05
2018-05-31T06:27:03.749Z,28.98
2018-05-31T06:27:44.202Z,29.12
2018-05-31T06:28:24.728Z,29.11
2018-05-31T06:29:05.198Z,29.23
2018-05-31T06:29:45.811Z,29.26
2018-05-31T06:30:26.269Z,29.14
2018-05-31T06:31:06.812Z,29.11
2018-05-31T06:31:47.298Z,29.18
2018-05-31T06:32:28.096Z,29.11
2018-05-31T06:33:08.377Z,29.09
2018-05-31T06:33:48.812Z,29.14
2018-05-31T06:34:29.333Z,29.15
2018-05-31T06:35:09.813Z,29.12
2018-05-31T06:35:50.356Z,29
2018-05-31T06:36:30.805Z,29.02
2018-05-31T06:37:11.329Z,28.92
2018-05-31T06:37:51.833Z,29.04
2018-05-31T06:38:32.348Z,29.05
2018-05-31T06:39:12.869Z,28.92
2018-05-31T06:39:53.358Z,28.81
2018-05-31T06:40:33.887Z,28.92
2018-05-31T06:41:14.404Z,28.88
2018-05-31T06:41:54.941Z,29.04
2018-05-31T06:42:35.429Z,29.09
2018-05-31T06:43:15.946Z,29.15
2018-05-31T06:43:56.489Z,29.18
2018-05-31T06:44:37.019Z,29.14
2018-05-31T06:45:17.541Z,29.11
2018-05-31T06:45:58.060Z,29.14
2018-05-31T06:46:38.599Z,29.15
2018-05-31T06:47:19.083Z,29.02
2018-05-31T06:47:59.591Z,29.02
2018-05-31T06:48:40.077Z,29.06
2018-05-31T06:49:20.600Z,29.04
2018-05-31T06:50:01.114Z,29.05
2018-05-31T06:50:41.557Z,28.95
2018-05-31T06:51:22.070Z,28.93
2018-05-31T06:52:02.927Z,29.06
2018-05-31T06:52:43.468Z,29.11
2018-05-31T06:53:23.980Z,29.12
2018-05-31T06:54:04.466Z,29.23
2018-05-31T06:54:45.023Z,29.19
2018-05-31T06:55:25.482Z,29.21
2018-05-31T06:56:06.007Z,29.23
2018-05-31T06:56:46.496Z,29.26
2018-05-31T06:57:27.258Z,29.3
2018-05-31T06:58:07.768Z,29.23
2018-05-31T06:58:48.247Z,29.27
2018-05-31T06:59:28.755Z,29.27
2018-05-31T07:00:09.291Z,29.11
2018-05-31T07:00:49.827Z,29.02
2018-05-31T07:01:30.267Z,28.92
2018-05-31T07:02:10.787Z,28.92
2018-05-31T07:02:51.372Z,28.93
2018-05-31T07:03:31.820Z,28.92
2018-05-31T07:04:12.345Z,28.85
2018-05-31T07:04:52.846Z,29.04
2018-05-31T07:05:33.332Z,29.06
2018-05-31T07:06:14.001Z,29
2018-05-31T07:06:54.412Z,28.95
2018-05-31T07:07:34.894Z,29.14
2018-05-31T07:08:15.406Z,29.04
2018-05-31T07:08:55.923Z,29.18
2018-05-31T07:09:36.464Z,29.18
2018-05-31T07:10:16.982Z,29.05
2018-05-31T07:10:57.508Z,29.08
2018-05-31T07:11:38.023Z,29.11
2018-05-31T07:12:18.520Z,29.24
2018-05-31T07:12:58.997Z,29.27
2018-05-31T07:13:39.544Z,29.31
2018-05-31T07:14:20.078Z,29.27
2018-05-31T07:15:00.600Z,29.24
2018-05-31T07:15:41.119Z,29.18
2018-05-31T07:16:21.709Z,29.33
2018-05-31T07:17:02.214Z,29.49
2018-05-31T07:17:42.732Z,29.48
2018-05-31T07:18:23.445Z,29.41
2018-05-31T07:19:03.959Z,29.53
2018-05-31T07:19:44.474Z,29.48
2018-05-31T07:20:25.002Z,29.39
2018-05-31T07:21:05.527Z,29.39
2018-05-31T07:21:46.051Z,29.53
2018-05-31T07:22:26.558Z,29.61
2018-05-31T07:23:07.063Z,29.57
2018-05-31T07:23:47.549Z,29.64
2018-05-31T07:24:28.061Z,29.51
2018-05-31T07:25:08.580Z,29.52
2018-05-31T07:25:49.246Z,29.6
2018-05-31T07:26:29.724Z,29.51
2018-05-31T07:27:10.264Z,29.65
2018-05-31T07:27:50.765Z,29.73
2018-05-31T07:28:31.306Z,29.58
2018-05-31T07:29:11.869Z,29.57
2018-05-31T07:29:52.670Z,29.53
2018-05-31T07:30:32.959Z,29.61
2018-05-31T07:31:13.491Z,29.57
2018-05-31T07:31:54.025Z,29.7
2018-05-31T07:32:34.540Z,29.68
2018-05-31T07:33:15.083Z,29.67
2018-05-31T07:33:55.615Z,29.65
2018-05-31T07:34:36.510Z,29.57
2018-05-31T07:35:17.046Z,29.65
2018-05-31T07:35:57.586Z,29.78
2018-05-31T07:36:38.143Z,29.82
2018-05-31T07:37:18.659Z,29.86
2018-05-31T07:37:59.140Z,29.86
2018-05-31T07:38:39.683Z,29.76
2018-05-31T07:39:20.138Z,29.9
2018-05-31T07:40:00.674Z,29.89
2018-05-31T07:40:41.260Z,29.89
2018-05-31T07:41:21.848Z,29.71
2018-05-31T07:42:02.367Z,29.68
2018-05-31T07:42:43.045Z,29.73
2018-05-31T07:43:23.541Z,29.7
2018-05-31T07:44:04.036Z,29.73
2018-05-31T07:44:44.549Z,29.58
2018-05-31T07:45:25.083Z,29.52
2018-05-31T07:46:05.651Z,29.55
2018-05-31T07:46:46.170Z,29.51
2018-05-31T07:47:26.683Z,29.36
2018-05-31T07:48:07.281Z,29.46
2018-05-31T07:48:47.703Z,29.52
2018-05-31T07:49:28.236Z,29.58
2018-05-31T07:50:08.769Z,29.49
2018-05-31T07:50:49.284Z,29.45
2018-05-31T07:51:29.813Z,29.57
2018-05-31T07:52:10.332Z,29.52
2018-05-31T07:52:50.843Z,29.61
2018-05-31T07:53:31.367Z,29.65
2018-05-31T07:54:11.890Z,29.73
2018-05-31T07:54:52.383Z,29.73
2018-05-31T07:55:32.897Z,29.67
2018-05-31T07:56:13.441Z,29.64
2018-05-31T07:56:53.952Z,29.58
2018-05-31T07:57:34.471Z,29.57
2018-05-31T07:58:15.031Z,29.73
2018-05-31T07:58:55.542Z,29.53
2018-05-31T07:59:36.086Z,29.53
2018-05-31T08:00:16.564Z,29.43
2018-05-31T08:00:57.098Z,29.43
2018-05-31T08:01:37.617Z,29.43
2018-05-31T08:02:18.148Z,29.34
2018-05-31T08:02:58.676Z,29.3
2018-05-31T08:03:39.195Z,29.27
2018-05-31T08:04:19.728Z,29.18
2018-05-31T08:05:00.244Z,29.21
2018-05-31T08:05:40.846Z,29.33
2018-05-31T08:06:21.347Z,29.49
2018-05-31T08:07:01.832Z,29.49
2018-05-31T08:07:42.366Z,29.61
2018-05-31T08:08:22.919Z,29.51
2018-05-31T08:09:03.436Z,29.49
2018-05-31T08:09:43.985Z,29.3
2018-05-31T08:10:24.515Z,29.28
2018-05-31T08:11:05.042Z,29.36
2018-05-31T08:11:45.599Z,29.45
2018-05-31T08:12:26.143Z,29.48
2018-05-31T08:13:06.793Z,29.42
2018-05-31T08:13:47.332Z,29.34
2018-05-31T08:14:27.885Z,29.21
2018-05-31T08:15:08.393Z,29.06
2018-05-31T08:15:48.988Z,29.05
2018-05-31T08:16:29.530Z,28.93
2018-05-31T08:17:10.125Z,29.09
2018-05-31T08:17:50.685Z,29.04
2018-05-31T08:18:31.225Z,28.92
2018-05-31T08:19:11.728Z,29.06
2018-05-31T08:19:52.283Z,28.9
2018-05-31T08:20:32.795Z,28.86
2018-05-31T08:21:13.354Z,28.68
2018-05-31T08:21:53.854Z,28.66
2018-05-31T08:22:34.417Z,28.55
2018-05-31T08:23:14.934Z,28.52
2018-05-31T08:23:55.438Z,28.51
2018-05-31T08:24:35.999Z,28.56
2018-05-31T08:25:16.504Z,28.56
2018-05-31T08:25:57.040Z,28.55
2018-05-31T08:26:37.573Z,28.58
2018-05-31T08:27:18.123Z,28.64
2018-05-31T08:27:58.671Z,28.64
2018-05-31T08:28:39.208Z,28.61
2018-05-31T08:29:19.697Z,28.66
2018-05-31T08:30:00.206Z,28.7
2018-05-31T08:30:40.751Z,28.64
2018-05-31T08:31:21.311Z,28.73
2018-05-31T08:32:01.812Z,28.7
2018-05-31T08:32:42.346Z,28.74
2018-05-31T08:33:22.884Z,28.71
2018-05-31T08:34:03.681Z,28.71
2018-05-31T08:34:43.937Z,28.64
2018-05-31T08:35:24.449Z,28.61
2018-05-31T08:36:04.996Z,28.66
2018-05-31T08:36:45.488Z,28.58
2018-05-31T08:37:26.016Z,28.58
2018-05-31T08:38:06.539Z,28.33
2018-05-31T08:38:47.060Z,28.41
2018-05-31T08:39:27.604Z,28.46
2018-05-31T08:40:08.127Z,28.51
2018-05-31T08:40:48.637Z,28.54
2018-05-31T08:41:29.157Z,28.43
2018-05-31T08:42:09.691Z,28.49
2018-05-31T08:42:50.243Z,28.54
2018-05-31T08:43:30.747Z,28.58
2018-05-31T08:44:11.302Z,28.54